sensor_id;sensor_type;location;lat;lon;timestamp;P1;durP1;ratioP1;P2;durP2;ratioP2
80957;SDS011;70419;42.700;23.316;2023-10-31T00:01:23;13.95;;;6.75;;
80957;SDS011;70419;42.700;23.316;2023-10-31T00:03:49;12.55;;;6.43;;
80957;SDS011;70419;42.700;23.316;2023-10-31T00:06:14;16.48;;;6.93;;
80957;SDS011;70419;42.700;23.316;2023-10-31T00:08:40;15.43;;;6.60;;
80957;SDS011;70419;42.700;23.316;2023-10-31T00:11:06;15.93;;;6.07;;
80957;SDS011;70419;42.700;23.316;2023-10-31T00:13:31;17.88;;;6.38;;
80957;SDS011;70419;42.700;23.316;2023-10-31T00:15:57;16.77;;;5.80;;
80957;SDS011;70419;42.700;23.316;2023-10-31T00:18:23;13.23;;;5.63;;
80957;SDS011;70419;42.700;23.316;2023-10-31T00:20:48;11.63;;;5.55;;
80957;SDS011;70419;42.700;23.316;2023-10-31T00:23:15;12.98;;;6.20;;
80957;SDS011;70419;42.700;23.316;2023-10-31T00:25:40;9.65;;;5.10;;
80957;SDS011;70419;42.700;23.316;2023-10-31T00:28:06;10.90;;;5.97;;
80957;SDS011;70419;42.700;23.316;2023-10-31T00:30:32;13.02;;;5.50;;
80957;SDS011;70419;42.700;23.316;2023-10-31T00:32:58;14.50;;;5.38;;
80957;SDS011;70419;42.700;23.316;2023-10-31T00:35:23;15.60;;;4.93;;
80957;SDS011;70419;42.700;23.316;2023-10-31T00:37:49;16.63;;;5.40;;
80957;SDS011;70419;42.700;23.316;2023-10-31T00:40:15;12.70;;;5.03;;
80957;SDS011;70419;42.700;23.316;2023-10-31T00:42:41;13.77;;;5.55;;
80957;SDS011;70419;42.700;23.316;2023-10-31T00:45:07;13.05;;;5.03;;
80957;SDS011;70419;42.700;23.316;2023-10-31T00:47:34;10.68;;;5.70;;
80957;SDS011;70419;42.700;23.316;2023-10-31T00:49:59;10.98;;;4.88;;
80957;SDS011;70419;42.700;23.316;2023-10-31T00:52:25;11.38;;;5.30;;
80957;SDS011;70419;42.700;23.316;2023-10-31T00:54:51;11.98;;;5.57;;
80957;SDS011;70419;42.700;23.316;2023-10-31T00:57:16;10.93;;;5.00;;
80957;SDS011;70419;42.700;23.316;2023-10-31T00:59:42;12.05;;;5.70;;
80957;SDS011;70419;42.700;23.316;2023-10-31T01:02:08;16.38;;;5.25;;
80957;SDS011;70419;42.700;23.316;2023-10-31T01:04:35;13.73;;;5.60;;
80957;SDS011;70419;42.700;23.316;2023-10-31T01:07:01;10.98;;;4.68;;
80957;SDS011;70419;42.700;23.316;2023-10-31T01:09:27;11.55;;;4.63;;
80957;SDS011;70419;42.700;23.316;2023-10-31T01:11:52;11.63;;;5.10;;
80957;SDS011;70419;42.700;23.316;2023-10-31T01:14:19;10.23;;;4.82;;
80957;SDS011;70419;42.700;23.316;2023-10-31T01:16:45;13.65;;;5.10;;
80957;SDS011;70419;42.700;23.316;2023-10-31T01:19:10;10.68;;;4.80;;
80957;SDS011;70419;42.700;23.316;2023-10-31T01:21:36;12.05;;;5.45;;
80957;SDS011;70419;42.700;23.316;2023-10-31T01:24:02;13.48;;;5.05;;
80957;SDS011;70419;42.700;23.316;2023-10-31T01:26:28;12.32;;;5.32;;
80957;SDS011;70419;42.700;23.316;2023-10-31T01:28:54;11.65;;;4.82;;
80957;SDS011;70419;42.700;23.316;2023-10-31T01:31:20;12.70;;;4.88;;
80957;SDS011;70419;42.700;23.316;2023-10-31T01:33:45;9.57;;;4.93;;
80957;SDS011;70419;42.700;23.316;2023-10-31T01:36:11;10.30;;;5.05;;
80957;SDS011;70419;42.700;23.316;2023-10-31T01:38:37;10.98;;;5.93;;
80957;SDS011;70419;42.700;23.316;2023-10-31T01:41:03;19.77;;;5.80;;
80957;SDS011;70419;42.700;23.316;2023-10-31T01:43:32;12.75;;;6.25;;
80957;SDS011;70419;42.700;23.316;2023-10-31T01:45:58;14.60;;;5.40;;
80957;SDS011;70419;42.700;23.316;2023-10-31T01:48:24;14.77;;;5.85;;
80957;SDS011;70419;42.700;23.316;2023-10-31T01:50:53;11.95;;;5.35;;
80957;SDS011;70419;42.700;23.316;2023-10-31T01:53:20;12.07;;;5.40;;
80957;SDS011;70419;42.700;23.316;2023-10-31T01:55:45;10.98;;;5.55;;
80957;SDS011;70419;42.700;23.316;2023-10-31T01:58:12;11.45;;;5.55;;
80957;SDS011;70419;42.700;23.316;2023-10-31T02:00:41;15.68;;;6.03;;
80957;SDS011;70419;42.700;23.316;2023-10-31T02:03:08;13.13;;;5.38;;
80957;SDS011;70419;42.700;23.316;2023-10-31T02:05:34;13.10;;;5.57;;
80957;SDS011;70419;42.700;23.316;2023-10-31T02:08:00;11.00;;;5.65;;
80957;SDS011;70419;42.700;23.316;2023-10-31T02:10:27;17.30;;;5.65;;
80957;SDS011;70419;42.700;23.316;2023-10-31T02:12:52;12.68;;;6.18;;
80957;SDS011;70419;42.700;23.316;2023-10-31T02:15:18;13.60;;;5.75;;
80957;SDS011;70419;42.700;23.316;2023-10-31T02:17:43;17.80;;;6.75;;
80957;SDS011;70419;42.700;23.316;2023-10-31T02:20:09;14.60;;;5.72;;
80957;SDS011;70419;42.700;23.316;2023-10-31T02:22:35;15.00;;;5.63;;
80957;SDS011;70419;42.700;23.316;2023-10-31T02:25:01;15.35;;;5.60;;
80957;SDS011;70419;42.700;23.316;2023-10-31T02:27:27;14.98;;;5.90;;
80957;SDS011;70419;42.700;23.316;2023-10-31T02:29:52;20.13;;;6.30;;
80957;SDS011;70419;42.700;23.316;2023-10-31T02:32:18;12.07;;;7.00;;
80957;SDS011;70419;42.700;23.316;2023-10-31T02:34:44;21.13;;;11.70;;
80957;SDS011;70419;42.700;23.316;2023-10-31T02:37:10;21.67;;;9.77;;
80957;SDS011;70419;42.700;23.316;2023-10-31T02:39:37;22.65;;;9.32;;
80957;SDS011;70419;42.700;23.316;2023-10-31T02:42:03;22.20;;;9.00;;
80957;SDS011;70419;42.700;23.316;2023-10-31T02:44:29;18.75;;;7.80;;
80957;SDS011;70419;42.700;23.316;2023-10-31T02:46:55;21.60;;;8.43;;
80957;SDS011;70419;42.700;23.316;2023-10-31T02:49:20;14.43;;;8.05;;
80957;SDS011;70419;42.700;23.316;2023-10-31T02:51:46;16.38;;;7.82;;
80957;SDS011;70419;42.700;23.316;2023-10-31T02:54:12;16.90;;;7.90;;
80957;SDS011;70419;42.700;23.316;2023-10-31T02:56:38;15.23;;;8.13;;
80957;SDS011;70419;42.700;23.316;2023-10-31T02:59:04;17.67;;;8.25;;
80957;SDS011;70419;42.700;23.316;2023-10-31T03:01:29;15.75;;;7.88;;
80957;SDS011;70419;42.700;23.316;2023-10-31T03:03:55;16.40;;;8.18;;
80957;SDS011;70419;42.700;23.316;2023-10-31T03:06:21;19.80;;;9.23;;
80957;SDS011;70419;42.700;23.316;2023-10-31T03:08:47;16.92;;;9.43;;
80957;SDS011;70419;42.700;23.316;2023-10-31T03:11:20;19.75;;;9.10;;
80957;SDS011;70419;42.700;23.316;2023-10-31T03:13:48;18.77;;;9.00;;
80957;SDS011;70419;42.700;23.316;2023-10-31T03:16:14;18.27;;;8.40;;
80957;SDS011;70419;42.700;23.316;2023-10-31T03:18:39;20.27;;;8.88;;
80957;SDS011;70419;42.700;23.316;2023-10-31T03:21:05;18.95;;;8.52;;
80957;SDS011;70419;42.700;23.316;2023-10-31T03:23:31;20.67;;;9.07;;
80957;SDS011;70419;42.700;23.316;2023-10-31T03:25:56;23.85;;;8.70;;
80957;SDS011;70419;42.700;23.316;2023-10-31T03:28:22;16.98;;;9.10;;
80957;SDS011;70419;42.700;23.316;2023-10-31T03:30:49;16.30;;;8.75;;
80957;SDS011;70419;42.700;23.316;2023-10-31T03:33:16;20.38;;;8.38;;
80957;SDS011;70419;42.700;23.316;2023-10-31T03:35:42;18.40;;;9.23;;
80957;SDS011;70419;42.700;23.316;2023-10-31T03:38:08;21.13;;;9.70;;
80957;SDS011;70419;42.700;23.316;2023-10-31T03:40:34;25.50;;;9.48;;
80957;SDS011;70419;42.700;23.316;2023-10-31T03:43:00;19.08;;;8.95;;
80957;SDS011;70419;42.700;23.316;2023-10-31T03:45:25;18.77;;;8.30;;
80957;SDS011;70419;42.700;23.316;2023-10-31T03:47:51;17.80;;;8.38;;
80957;SDS011;70419;42.700;23.316;2023-10-31T03:50:17;15.77;;;8.55;;
80957;SDS011;70419;42.700;23.316;2023-10-31T03:52:42;17.52;;;8.85;;
80957;SDS011;70419;42.700;23.316;2023-10-31T03:55:08;20.27;;;8.32;;
80957;SDS011;70419;42.700;23.316;2023-10-31T03:57:34;17.73;;;8.57;;
80957;SDS011;70419;42.700;23.316;2023-10-31T04:00:00;16.63;;;8.15;;
80957;SDS011;70419;42.700;23.316;2023-10-31T04:02:27;18.52;;;7.97;;
80957;SDS011;70419;42.700;23.316;2023-10-31T04:04:53;22.27;;;8.50;;
80957;SDS011;70419;42.700;23.316;2023-10-31T04:07:18;23.85;;;8.38;;
80957;SDS011;70419;42.700;23.316;2023-10-31T04:09:44;15.70;;;7.85;;
80957;SDS011;70419;42.700;23.316;2023-10-31T04:12:09;19.73;;;7.82;;
80957;SDS011;70419;42.700;23.316;2023-10-31T04:14:35;18.83;;;7.88;;
80957;SDS011;70419;42.700;23.316;2023-10-31T04:17:03;17.48;;;8.00;;
80957;SDS011;70419;42.700;23.316;2023-10-31T04:19:28;18.27;;;8.50;;
80957;SDS011;70419;42.700;23.316;2023-10-31T04:21:54;21.17;;;8.27;;
80957;SDS011;70419;42.700;23.316;2023-10-31T04:24:20;22.30;;;8.45;;
80957;SDS011;70419;42.700;23.316;2023-10-31T04:26:45;16.52;;;7.75;;
80957;SDS011;70419;42.700;23.316;2023-10-31T04:29:11;18.15;;;9.20;;
80957;SDS011;70419;42.700;23.316;2023-10-31T04:31:37;21.45;;;9.48;;
80957;SDS011;70419;42.700;23.316;2023-10-31T04:34:02;19.60;;;9.45;;
80957;SDS011;70419;42.700;23.316;2023-10-31T04:36:28;21.98;;;10.57;;
80957;SDS011;70419;42.700;23.316;2023-10-31T04:38:54;21.80;;;11.07;;
80957;SDS011;70419;42.700;23.316;2023-10-31T04:41:20;20.95;;;11.00;;
80957;SDS011;70419;42.700;23.316;2023-10-31T04:43:45;22.08;;;9.27;;
80957;SDS011;70419;42.700;23.316;2023-10-31T04:46:11;20.02;;;9.35;;
80957;SDS011;70419;42.700;23.316;2023-10-31T04:48:37;25.88;;;10.05;;
80957;SDS011;70419;42.700;23.316;2023-10-31T04:51:03;21.08;;;10.52;;
80957;SDS011;70419;42.700;23.316;2023-10-31T04:53:28;22.17;;;10.48;;
80957;SDS011;70419;42.700;23.316;2023-10-31T04:55:54;24.88;;;9.98;;
80957;SDS011;70419;42.700;23.316;2023-10-31T04:58:20;25.85;;;8.93;;
80957;SDS011;70419;42.700;23.316;2023-10-31T05:00:46;20.85;;;8.82;;
80957;SDS011;70419;42.700;23.316;2023-10-31T05:03:12;20.20;;;9.30;;
80957;SDS011;70419;42.700;23.316;2023-10-31T05:05:38;18.95;;;9.15;;
80957;SDS011;70419;42.700;23.316;2023-10-31T05:08:03;21.48;;;10.30;;
80957;SDS011;70419;42.700;23.316;2023-10-31T05:10:29;24.58;;;9.73;;
80957;SDS011;70419;42.700;23.316;2023-10-31T05:12:55;18.70;;;8.60;;
80957;SDS011;70419;42.700;23.316;2023-10-31T05:15:22;24.33;;;8.68;;
80957;SDS011;70419;42.700;23.316;2023-10-31T05:17:47;19.52;;;9.00;;
80957;SDS011;70419;42.700;23.316;2023-10-31T05:20:13;25.85;;;9.20;;
80957;SDS011;70419;42.700;23.316;2023-10-31T05:22:40;23.27;;;9.00;;
80957;SDS011;70419;42.700;23.316;2023-10-31T05:25:06;26.45;;;10.00;;
80957;SDS011;70419;42.700;23.316;2023-10-31T05:27:35;19.70;;;8.73;;
80957;SDS011;70419;42.700;23.316;2023-10-31T05:30:00;17.33;;;8.73;;
80957;SDS011;70419;42.700;23.316;2023-10-31T05:32:26;19.13;;;8.57;;
80957;SDS011;70419;42.700;23.316;2023-10-31T05:34:52;22.13;;;9.23;;
80957;SDS011;70419;42.700;23.316;2023-10-31T05:37:17;25.30;;;10.18;;
80957;SDS011;70419;42.700;23.316;2023-10-31T05:39:43;22.83;;;9.18;;
80957;SDS011;70419;42.700;23.316;2023-10-31T05:42:08;20.65;;;8.82;;
80957;SDS011;70419;42.700;23.316;2023-10-31T05:44:34;20.58;;;9.05;;
80957;SDS011;70419;42.700;23.316;2023-10-31T05:47:00;21.00;;;9.00;;
80957;SDS011;70419;42.700;23.316;2023-10-31T05:49:25;19.67;;;9.20;;
80957;SDS011;70419;42.700;23.316;2023-10-31T05:51:51;21.13;;;9.25;;
80957;SDS011;70419;42.700;23.316;2023-10-31T05:54:17;19.65;;;10.00;;
80957;SDS011;70419;42.700;23.316;2023-10-31T05:56:43;23.50;;;9.18;;
80957;SDS011;70419;42.700;23.316;2023-10-31T05:59:10;21.00;;;8.35;;
80957;SDS011;70419;42.700;23.316;2023-10-31T06:01:36;19.45;;;8.77;;
80957;SDS011;70419;42.700;23.316;2023-10-31T06:04:02;18.25;;;8.95;;
80957;SDS011;70419;42.700;23.316;2023-10-31T06:06:29;21.17;;;9.18;;
80957;SDS011;70419;42.700;23.316;2023-10-31T06:08:57;20.00;;;7.90;;
80957;SDS011;70419;42.700;23.316;2023-10-31T06:11:22;22.65;;;8.98;;
80957;SDS011;70419;42.700;23.316;2023-10-31T06:13:48;26.13;;;9.77;;
80957;SDS011;70419;42.700;23.316;2023-10-31T06:16:14;17.65;;;9.57;;
80957;SDS011;70419;42.700;23.316;2023-10-31T06:18:40;19.02;;;8.80;;
80957;SDS011;70419;42.700;23.316;2023-10-31T06:21:05;20.80;;;8.93;;
80957;SDS011;70419;42.700;23.316;2023-10-31T06:23:33;20.58;;;9.45;;
80957;SDS011;70419;42.700;23.316;2023-10-31T06:26:01;23.98;;;9.20;;
80957;SDS011;70419;42.700;23.316;2023-10-31T06:28:26;21.67;;;8.77;;
80957;SDS011;70419;42.700;23.316;2023-10-31T06:30:52;19.02;;;8.63;;
80957;SDS011;70419;42.700;23.316;2023-10-31T06:33:22;14.93;;;8.32;;
80957;SDS011;70419;42.700;23.316;2023-10-31T06:35:48;20.35;;;8.48;;
80957;SDS011;70419;42.700;23.316;2023-10-31T06:38:13;21.80;;;9.38;;
80957;SDS011;70419;42.700;23.316;2023-10-31T06:40:39;16.52;;;8.70;;
80957;SDS011;70419;42.700;23.316;2023-10-31T06:43:05;21.80;;;9.27;;
80957;SDS011;70419;42.700;23.316;2023-10-31T06:45:31;16.13;;;9.73;;
80957;SDS011;70419;42.700;23.316;2023-10-31T06:47:56;21.67;;;10.20;;
80957;SDS011;70419;42.700;23.316;2023-10-31T06:50:22;17.20;;;10.05;;
80957;SDS011;70419;42.700;23.316;2023-10-31T06:52:48;20.67;;;8.75;;
80957;SDS011;70419;42.700;23.316;2023-10-31T06:55:14;16.08;;;9.20;;
80957;SDS011;70419;42.700;23.316;2023-10-31T06:57:43;20.00;;;9.52;;
80957;SDS011;70419;42.700;23.316;2023-10-31T07:00:10;25.50;;;10.30;;
80957;SDS011;70419;42.700;23.316;2023-10-31T07:02:36;23.58;;;10.60;;
80957;SDS011;70419;42.700;23.316;2023-10-31T07:05:02;21.70;;;10.68;;
80957;SDS011;70419;42.700;23.316;2023-10-31T07:07:29;19.17;;;9.93;;
80957;SDS011;70419;42.700;23.316;2023-10-31T07:09:59;22.65;;;9.15;;
80957;SDS011;70419;42.700;23.316;2023-10-31T07:12:25;15.85;;;9.60;;
80957;SDS011;70419;42.700;23.316;2023-10-31T07:14:51;17.60;;;9.55;;
80957;SDS011;70419;42.700;23.316;2023-10-31T07:17:18;21.00;;;8.82;;
80957;SDS011;70419;42.700;23.316;2023-10-31T07:19:43;19.65;;;9.13;;
80957;SDS011;70419;42.700;23.316;2023-10-31T07:22:10;15.25;;;9.45;;
80957;SDS011;70419;42.700;23.316;2023-10-31T07:24:36;16.08;;;9.75;;
80957;SDS011;70419;42.700;23.316;2023-10-31T07:27:04;14.98;;;9.13;;
80957;SDS011;70419;42.700;23.316;2023-10-31T07:29:29;18.55;;;9.07;;
80957;SDS011;70419;42.700;23.316;2023-10-31T07:31:55;21.20;;;9.68;;
80957;SDS011;70419;42.700;23.316;2023-10-31T07:34:21;17.20;;;9.88;;
80957;SDS011;70419;42.700;23.316;2023-10-31T07:36:47;16.13;;;9.52;;
80957;SDS011;70419;42.700;23.316;2023-10-31T07:39:12;14.43;;;8.77;;
80957;SDS011;70419;42.700;23.316;2023-10-31T07:41:39;15.20;;;8.23;;
80957;SDS011;70419;42.700;23.316;2023-10-31T07:44:05;16.20;;;8.18;;
80957;SDS011;70419;42.700;23.316;2023-10-31T07:46:31;13.73;;;7.57;;
80957;SDS011;70419;42.700;23.316;2023-10-31T07:48:57;13.13;;;7.22;;
80957;SDS011;70419;42.700;23.316;2023-10-31T07:51:26;21.60;;;7.80;;
80957;SDS011;70419;42.700;23.316;2023-10-31T07:53:51;13.43;;;8.05;;
80957;SDS011;70419;42.700;23.316;2023-10-31T07:56:17;18.45;;;7.55;;
80957;SDS011;70419;42.700;23.316;2023-10-31T07:58:48;18.30;;;8.90;;
80957;SDS011;70419;42.700;23.316;2023-10-31T08:01:16;23.02;;;8.93;;
80957;SDS011;70419;42.700;23.316;2023-10-31T08:03:46;15.27;;;8.20;;
80957;SDS011;70419;42.700;23.316;2023-10-31T08:06:12;15.10;;;8.23;;
80957;SDS011;70419;42.700;23.316;2023-10-31T08:08:39;13.75;;;8.10;;
80957;SDS011;70419;42.700;23.316;2023-10-31T08:11:09;15.70;;;8.77;;
80957;SDS011;70419;42.700;23.316;2023-10-31T08:13:36;13.38;;;9.23;;
80957;SDS011;70419;42.700;23.316;2023-10-31T08:16:03;18.77;;;9.27;;
80957;SDS011;70419;42.700;23.316;2023-10-31T08:18:31;15.68;;;8.60;;
80957;SDS011;70419;42.700;23.316;2023-10-31T08:20:57;16.80;;;8.93;;
80957;SDS011;70419;42.700;23.316;2023-10-31T08:23:23;16.05;;;8.80;;
80957;SDS011;70419;42.700;23.316;2023-10-31T08:25:51;21.58;;;9.75;;
80957;SDS011;70419;42.700;23.316;2023-10-31T08:28:17;15.93;;;8.82;;
80957;SDS011;70419;42.700;23.316;2023-10-31T08:30:43;15.48;;;8.20;;
80957;SDS011;70419;42.700;23.316;2023-10-31T08:33:09;15.85;;;7.65;;
80957;SDS011;70419;42.700;23.316;2023-10-31T08:35:35;15.07;;;8.30;;
80957;SDS011;70419;42.700;23.316;2023-10-31T08:38:00;16.80;;;7.00;;
80957;SDS011;70419;42.700;23.316;2023-10-31T08:40:26;14.77;;;6.97;;
80957;SDS011;70419;42.700;23.316;2023-10-31T08:42:52;11.45;;;7.30;;
80957;SDS011;70419;42.700;23.316;2023-10-31T08:45:18;18.50;;;8.57;;
80957;SDS011;70419;42.700;23.316;2023-10-31T08:47:45;14.57;;;8.53;;
80957;SDS011;70419;42.700;23.316;2023-10-31T08:50:11;12.48;;;8.20;;
80957;SDS011;70419;42.700;23.316;2023-10-31T08:52:38;16.10;;;7.40;;
80957;SDS011;70419;42.700;23.316;2023-10-31T08:55:04;13.67;;;6.77;;
80957;SDS011;70419;42.700;23.316;2023-10-31T08:57:30;12.77;;;7.13;;
80957;SDS011;70419;42.700;23.316;2023-10-31T08:59:56;13.75;;;6.60;;
80957;SDS011;70419;42.700;23.316;2023-10-31T09:02:22;11.90;;;6.50;;
80957;SDS011;70419;42.700;23.316;2023-10-31T09:04:48;13.10;;;6.70;;
80957;SDS011;70419;42.700;23.316;2023-10-31T09:07:13;13.70;;;7.15;;
80957;SDS011;70419;42.700;23.316;2023-10-31T09:09:39;12.35;;;6.90;;
80957;SDS011;70419;42.700;23.316;2023-10-31T09:12:05;10.13;;;6.40;;
80957;SDS011;70419;42.700;23.316;2023-10-31T09:14:31;8.43;;;5.85;;
80957;SDS011;70419;42.700;23.316;2023-10-31T09:16:56;14.23;;;6.88;;
80957;SDS011;70419;42.700;23.316;2023-10-31T09:19:22;11.85;;;6.72;;
80957;SDS011;70419;42.700;23.316;2023-10-31T09:21:48;15.05;;;7.05;;
80957;SDS011;70419;42.700;23.316;2023-10-31T09:24:14;13.55;;;7.55;;
80957;SDS011;70419;42.700;23.316;2023-10-31T09:26:41;13.15;;;5.97;;
80957;SDS011;70419;42.700;23.316;2023-10-31T09:29:10;12.75;;;5.38;;
80957;SDS011;70419;42.700;23.316;2023-10-31T09:31:36;10.23;;;5.63;;
80957;SDS011;70419;42.700;23.316;2023-10-31T09:34:02;13.77;;;6.47;;
80957;SDS011;70419;42.700;23.316;2023-10-31T09:36:28;11.13;;;6.05;;
80957;SDS011;70419;42.700;23.316;2023-10-31T09:38:57;16.92;;;6.30;;
80957;SDS011;70419;42.700;23.316;2023-10-31T09:41:23;11.02;;;5.93;;
80957;SDS011;70419;42.700;23.316;2023-10-31T09:43:48;15.38;;;5.90;;
80957;SDS011;70419;42.700;23.316;2023-10-31T09:46:15;13.53;;;7.00;;
80957;SDS011;70419;42.700;23.316;2023-10-31T09:48:42;18.60;;;7.45;;
80957;SDS011;70419;42.700;23.316;2023-10-31T09:51:09;14.25;;;6.68;;
80957;SDS011;70419;42.700;23.316;2023-10-31T09:53:37;16.10;;;7.07;;
80957;SDS011;70419;42.700;23.316;2023-10-31T09:56:04;12.93;;;6.95;;
80957;SDS011;70419;42.700;23.316;2023-10-31T09:58:31;14.20;;;6.95;;
80957;SDS011;70419;42.700;23.316;2023-10-31T10:00:59;12.85;;;5.60;;
80957;SDS011;70419;42.700;23.316;2023-10-31T10:03:26;11.53;;;5.90;;
80957;SDS011;70419;42.700;23.316;2023-10-31T10:05:53;13.40;;;5.82;;
80957;SDS011;70419;42.700;23.316;2023-10-31T10:08:19;14.27;;;6.38;;
80957;SDS011;70419;42.700;23.316;2023-10-31T10:10:45;18.38;;;7.43;;
80957;SDS011;70419;42.700;23.316;2023-10-31T10:13:12;11.23;;;6.25;;
80957;SDS011;70419;42.700;23.316;2023-10-31T10:15:46;11.50;;;6.40;;
80957;SDS011;70419;42.700;23.316;2023-10-31T10:20:55;13.20;;;6.43;;
80957;SDS011;70419;42.700;23.316;2023-10-31T10:23:24;13.38;;;5.65;;
80957;SDS011;70419;42.700;23.316;2023-10-31T10:25:51;12.60;;;5.60;;
80957;SDS011;70419;42.700;23.316;2023-10-31T10:28:18;12.68;;;5.85;;
80957;SDS011;70419;42.700;23.316;2023-10-31T10:30:46;14.93;;;6.65;;
80957;SDS011;70419;42.700;23.316;2023-10-31T10:33:13;11.98;;;5.75;;
80957;SDS011;70419;42.700;23.316;2023-10-31T10:35:40;13.65;;;5.75;;
80957;SDS011;70419;42.700;23.316;2023-10-31T10:38:14;22.35;;;7.70;;
80957;SDS011;70419;42.700;23.316;2023-10-31T10:40:42;12.07;;;6.03;;
80957;SDS011;70419;42.700;23.316;2023-10-31T10:43:24;8.95;;;5.13;;
80957;SDS011;70419;42.700;23.316;2023-10-31T10:45:54;14.82;;;6.32;;
80957;SDS011;70419;42.700;23.316;2023-10-31T10:48:21;11.07;;;5.05;;
80957;SDS011;70419;42.700;23.316;2023-10-31T10:50:51;15.82;;;5.47;;
80957;SDS011;70419;42.700;23.316;2023-10-31T10:56:16;15.00;;;5.30;;
80957;SDS011;70419;42.700;23.316;2023-10-31T10:58:51;10.55;;;4.13;;
80957;SDS011;70419;42.700;23.316;2023-10-31T11:01:20;16.08;;;4.32;;
80957;SDS011;70419;42.700;23.316;2023-10-31T11:03:47;16.85;;;4.80;;
80957;SDS011;70419;42.700;23.316;2023-10-31T11:06:14;12.13;;;4.38;;
80957;SDS011;70419;42.700;23.316;2023-10-31T11:08:40;9.38;;;3.90;;
80957;SDS011;70419;42.700;23.316;2023-10-31T11:11:07;10.80;;;4.35;;
80957;SDS011;70419;42.700;23.316;2023-10-31T11:13:34;9.80;;;4.07;;
80957;SDS011;70419;42.700;23.316;2023-10-31T11:16:02;13.93;;;4.45;;
80957;SDS011;70419;42.700;23.316;2023-10-31T11:18:38;13.45;;;4.60;;
80957;SDS011;70419;42.700;23.316;2023-10-31T11:21:05;15.30;;;4.40;;
80957;SDS011;70419;42.700;23.316;2023-10-31T11:23:30;10.95;;;4.55;;
80957;SDS011;70419;42.700;23.316;2023-10-31T11:25:56;9.20;;;3.83;;
80957;SDS011;70419;42.700;23.316;2023-10-31T11:28:22;12.95;;;3.65;;
80957;SDS011;70419;42.700;23.316;2023-10-31T11:30:48;13.55;;;3.92;;
80957;SDS011;70419;42.700;23.316;2023-10-31T11:33:16;13.48;;;4.18;;
80957;SDS011;70419;42.700;23.316;2023-10-31T11:35:49;10.60;;;4.00;;
80957;SDS011;70419;42.700;23.316;2023-10-31T11:38:16;14.60;;;5.53;;
80957;SDS011;70419;42.700;23.316;2023-10-31T11:40:59;8.63;;;3.53;;
80957;SDS011;70419;42.700;23.316;2023-10-31T11:43:35;9.75;;;4.15;;
80957;SDS011;70419;42.700;23.316;2023-10-31T11:46:19;15.02;;;3.90;;
80957;SDS011;70419;42.700;23.316;2023-10-31T11:48:49;9.07;;;3.03;;
80957;SDS011;70419;42.700;23.316;2023-10-31T11:51:17;12.40;;;3.97;;
80957;SDS011;70419;42.700;23.316;2023-10-31T11:53:43;8.52;;;2.83;;
80957;SDS011;70419;42.700;23.316;2023-10-31T11:56:10;11.15;;;3.20;;
80957;SDS011;70419;42.700;23.316;2023-10-31T11:58:36;8.48;;;2.70;;
80957;SDS011;70419;42.700;23.316;2023-10-31T12:01:03;12.38;;;3.28;;
80957;SDS011;70419;42.700;23.316;2023-10-31T12:06:07;11.00;;;2.83;;
80957;SDS011;70419;42.700;23.316;2023-10-31T12:08:37;11.10;;;3.83;;
80957;SDS011;70419;42.700;23.316;2023-10-31T12:11:05;13.93;;;3.78;;
80957;SDS011;70419;42.700;23.316;2023-10-31T12:13:35;10.30;;;2.72;;
80957;SDS011;70419;42.700;23.316;2023-10-31T12:18:30;14.43;;;3.30;;
80957;SDS011;70419;42.700;23.316;2023-10-31T12:20:56;14.43;;;4.60;;
80957;SDS011;70419;42.700;23.316;2023-10-31T12:23:25;10.73;;;3.70;;
80957;SDS011;70419;42.700;23.316;2023-10-31T12:25:51;12.60;;;3.35;;
80957;SDS011;70419;42.700;23.316;2023-10-31T12:28:17;12.02;;;3.20;;
80957;SDS011;70419;42.700;23.316;2023-10-31T12:30:48;10.68;;;3.55;;
80957;SDS011;70419;42.700;23.316;2023-10-31T12:33:15;12.23;;;3.65;;
80957;SDS011;70419;42.700;23.316;2023-10-31T12:35:41;8.60;;;3.67;;
80957;SDS011;70419;42.700;23.316;2023-10-31T12:38:10;12.15;;;4.47;;
80957;SDS011;70419;42.700;23.316;2023-10-31T12:43:03;11.20;;;3.40;;
80957;SDS011;70419;42.700;23.316;2023-10-31T12:45:29;13.63;;;3.70;;
80957;SDS011;70419;42.700;23.316;2023-10-31T12:48:02;11.80;;;3.95;;
80957;SDS011;70419;42.700;23.316;2023-10-31T12:50:29;14.45;;;3.72;;
80957;SDS011;70419;42.700;23.316;2023-10-31T12:52:56;9.40;;;3.90;;
80957;SDS011;70419;42.700;23.316;2023-10-31T12:55:24;10.23;;;3.67;;
80957;SDS011;70419;42.700;23.316;2023-10-31T12:57:51;9.13;;;3.80;;
80957;SDS011;70419;42.700;23.316;2023-10-31T13:00:17;11.63;;;5.97;;
80957;SDS011;70419;42.700;23.316;2023-10-31T13:02:50;13.07;;;4.70;;
80957;SDS011;70419;42.700;23.316;2023-10-31T13:05:24;9.27;;;3.75;;
80957;SDS011;70419;42.700;23.316;2023-10-31T13:07:51;9.27;;;4.20;;
80957;SDS011;70419;42.700;23.316;2023-10-31T13:10:19;12.60;;;3.83;;
80957;SDS011;70419;42.700;23.316;2023-10-31T13:12:45;12.00;;;4.32;;
80957;SDS011;70419;42.700;23.316;2023-10-31T13:15:12;11.23;;;4.07;;
80957;SDS011;70419;42.700;23.316;2023-10-31T13:17:39;10.88;;;4.35;;
80957;SDS011;70419;42.700;23.316;2023-10-31T13:20:08;16.95;;;4.82;;
80957;SDS011;70419;42.700;23.316;2023-10-31T13:22:35;14.60;;;4.28;;
80957;SDS011;70419;42.700;23.316;2023-10-31T13:25:03;18.70;;;4.90;;
80957;SDS011;70419;42.700;23.316;2023-10-31T13:27:30;17.60;;;5.13;;
80957;SDS011;70419;42.700;23.316;2023-10-31T13:29:57;16.75;;;4.55;;
80957;SDS011;70419;42.700;23.316;2023-10-31T13:32:22;8.07;;;4.47;;
80957;SDS011;70419;42.700;23.316;2023-10-31T13:34:50;20.13;;;4.82;;
80957;SDS011;70419;42.700;23.316;2023-10-31T13:37:17;13.00;;;5.55;;
80957;SDS011;70419;42.700;23.316;2023-10-31T13:39:43;12.50;;;4.70;;
80957;SDS011;70419;42.700;23.316;2023-10-31T13:42:09;32.38;;;6.85;;
80957;SDS011;70419;42.700;23.316;2023-10-31T13:44:36;26.52;;;6.40;;
80957;SDS011;70419;42.700;23.316;2023-10-31T13:47:02;14.98;;;4.35;;
80957;SDS011;70419;42.700;23.316;2023-10-31T13:49:28;16.98;;;3.92;;
80957;SDS011;70419;42.700;23.316;2023-10-31T13:51:54;18.00;;;4.35;;
80957;SDS011;70419;42.700;23.316;2023-10-31T13:54:20;19.30;;;4.15;;
80957;SDS011;70419;42.700;23.316;2023-10-31T13:56:46;10.13;;;3.00;;
80957;SDS011;70419;42.700;23.316;2023-10-31T13:59:12;10.93;;;3.28;;
80957;SDS011;70419;42.700;23.316;2023-10-31T14:01:39;11.82;;;3.60;;
80957;SDS011;70419;42.700;23.316;2023-10-31T14:04:06;13.48;;;3.47;;
80957;SDS011;70419;42.700;23.316;2023-10-31T14:06:33;13.40;;;4.40;;
80957;SDS011;70419;42.700;23.316;2023-10-31T14:08:59;15.35;;;4.22;;
80957;SDS011;70419;42.700;23.316;2023-10-31T14:11:29;14.20;;;4.82;;
80957;SDS011;70419;42.700;23.316;2023-10-31T14:13:56;14.32;;;4.75;;
80957;SDS011;70419;42.700;23.316;2023-10-31T14:16:28;23.77;;;5.00;;
80957;SDS011;70419;42.700;23.316;2023-10-31T14:18:56;18.60;;;5.95;;
80957;SDS011;70419;42.700;23.316;2023-10-31T14:21:22;28.27;;;8.07;;
80957;SDS011;70419;42.700;23.316;2023-10-31T14:23:48;17.85;;;6.10;;
80957;SDS011;70419;42.700;23.316;2023-10-31T14:26:20;21.45;;;6.15;;
80957;SDS011;70419;42.700;23.316;2023-10-31T14:28:46;15.65;;;6.63;;
80957;SDS011;70419;42.700;23.316;2023-10-31T14:31:12;13.60;;;5.60;;